createdAt,value
2022-12-08T00:01:21.101Z,100988.63
2022-12-08T00:03:49.081Z,100971.47
2022-12-08T00:06:41.877Z,100978.06
2022-12-08T00:09:23.787Z,100963.63
2022-12-08T00:11:55.202Z,100958.06
2022-12-08T00:14:27.445Z,100948.41
2022-12-08T00:16:55.738Z,100936.28
2022-12-08T00:19:24.252Z,100937.66
2022-12-08T00:21:52.224Z,100935.19
2022-12-08T00:24:20.840Z,100923.78
2022-12-08T00:26:48.750Z,100920.66
2022-12-08T00:29:17.743Z,100920.78
2022-12-08T00:31:47.065Z,100917.63
2022-12-08T00:34:15.110Z,100912.19
2022-12-08T00:36:43.225Z,100912.88
2022-12-08T00:39:12.967Z,100899.88
2022-12-08T00:41:58.287Z,100898.28
2022-12-08T00:44:26.063Z,100894.56
2022-12-08T00:46:55.472Z,100901.31
2022-12-08T00:49:23.873Z,100892.16
2022-12-08T00:51:51.802Z,100899.19
2022-12-08T00:54:20.146Z,100895.22
2022-12-08T00:56:47.802Z,100875.28
2022-12-08T00:59:15.768Z,100860.47
2022-12-08T01:01:45.937Z,100877.75
2022-12-08T01:04:17.450Z,100873.25
2022-12-08T01:06:46.296Z,100868.91
2022-12-08T01:09:14.702Z,100858.44
2022-12-08T01:11:44.390Z,100860.75
2022-12-08T01:14:12.480Z,100874.22
2022-12-08T01:16:41.423Z,100881.38
2022-12-08T01:19:11.871Z,100872.97
2022-12-08T01:21:41.486Z,100869.19
2022-12-08T01:24:12.147Z,100868.06
2022-12-08T01:26:39.783Z,100878.28
2022-12-08T01:29:07.442Z,100869.53
2022-12-08T01:31:35.064Z,100868.19
2022-12-08T01:34:02.823Z,100861.09
2022-12-08T01:36:32.331Z,100860.03
2022-12-08T01:39:02.898Z,100857.47
2022-12-08T01:41:33.053Z,100855.94
2022-12-08T01:44:02.010Z,100856.47
2022-12-08T01:46:32.524Z,100855.41
2022-12-08T01:49:05.038Z,100853.44
2022-12-08T01:51:36.434Z,100859.41
2022-12-08T01:54:07.645Z,100858.88
2022-12-08T01:56:42.299Z,100859.03
2022-12-08T01:59:11.936Z,100857.84
2022-12-08T02:01:39.975Z,100856.09
2022-12-08T02:04:07.695Z,100855.69
2022-12-08T02:06:40.746Z,100853.50
2022-12-08T02:09:10.649Z,100837.75
2022-12-08T02:11:38.390Z,100823.66
2022-12-08T02:14:08.328Z,100840.16
2022-12-08T02:16:42.222Z,100824.44
2022-12-08T02:19:32.507Z,100838.16
2022-12-08T02:22:05.486Z,100829.47
2022-12-08T02:24:39.679Z,100809.00
2022-12-08T02:27:33.839Z,100821.41
2022-12-08T02:30:19.871Z,100816.50
2022-12-08T02:33:20.835Z,100817.44
2022-12-08T02:35:57.947Z,100813.69
2022-12-08T02:38:35.891Z,100811.34
2022-12-08T02:41:14.282Z,100749.50
2022-12-08T02:43:45.352Z,100790.84
2022-12-08T02:46:17.112Z,100810.75
2022-12-08T02:48:45.078Z,100803.81
2022-12-08T02:51:14.127Z,100807.06
2022-12-08T02:53:42.465Z,100809.94
2022-12-08T02:56:23.552Z,100820.59
2022-12-08T02:59:11.271Z,100814.75
2022-12-08T03:01:56.338Z,100820.09
2022-12-08T03:04:34.100Z,100804.47
2022-12-08T03:07:09.276Z,100793.44
2022-12-08T03:09:40.820Z,100801.75
2022-12-08T03:12:17.527Z,100784.59
2022-12-08T03:14:49.092Z,100775.34
2022-12-08T03:17:18.398Z,100774.50
2022-12-08T03:19:48.837Z,100756.06
2022-12-08T03:22:23.175Z,100756.72
2022-12-08T03:24:51.389Z,100739.44
2022-12-08T03:27:22.087Z,100702.63
2022-12-08T03:29:52.666Z,100735.38
2022-12-08T03:32:24.657Z,100744.09
2022-12-08T03:34:53.361Z,100728.69
2022-12-08T03:37:22.848Z,100749.09
2022-12-08T03:39:50.845Z,100748.16
2022-12-08T03:42:18.726Z,100734.59
2022-12-08T03:44:46.333Z,100759.59
2022-12-08T03:47:13.971Z,100751.06
2022-12-08T03:49:41.660Z,100744.41
2022-12-08T03:52:09.257Z,100747.25
2022-12-08T03:54:38.182Z,100736.53
2022-12-08T03:57:05.862Z,100737.88
2022-12-08T03:59:33.478Z,100733.53
2022-12-08T04:02:01.359Z,100728.50
2022-12-08T04:04:29.024Z,100728.09
2022-12-08T04:06:56.702Z,100738.28
2022-12-08T04:09:24.558Z,100739.75
2022-12-08T04:11:53.550Z,100728.06
2022-12-08T04:14:21.426Z,100724.16
2022-12-08T04:16:49.154Z,100718.69
2022-12-08T04:19:16.747Z,100713.22
2022-12-08T04:21:44.333Z,100711.88
2022-12-08T04:24:11.942Z,100722.34
2022-12-08T04:26:39.558Z,100716.63
2022-12-08T04:29:08.531Z,100723.97
2022-12-08T04:31:36.224Z,100720.72
2022-12-08T04:34:03.915Z,100726.69
2022-12-08T04:36:31.566Z,100725.47
2022-12-08T04:38:59.234Z,100722.22
2022-12-08T04:41:26.905Z,100717.31
2022-12-08T04:43:54.552Z,100715.69
2022-12-08T04:46:23.546Z,100707.28
2022-12-08T04:48:51.212Z,100710.25
2022-12-08T04:51:20.223Z,100689.19
2022-12-08T04:53:48.556Z,100707.81
2022-12-08T04:56:18.507Z,100708.78
2022-12-08T04:58:46.591Z,100710.94
2022-12-08T05:01:14.819Z,100713.41
2022-12-08T05:03:43.884Z,100712.75
2022-12-08T05:06:13.325Z,100710.28
2022-12-08T05:08:41.094Z,100721.69
2022-12-08T05:11:10.128Z,100725.22
2022-12-08T05:13:37.802Z,100726.03
2022-12-08T05:16:07.146Z,100724.22
2022-12-08T05:18:34.919Z,100718.56
2022-12-08T05:21:04.037Z,100720.19
2022-12-08T05:23:32.052Z,100718.84
2022-12-08T05:25:59.801Z,100714.50
2022-12-08T05:28:43.809Z,100704.88
2022-12-08T05:31:12.646Z,100713.00
2022-12-08T05:33:40.420Z,100708.78
2022-12-08T05:36:10.375Z,100693.84
2022-12-08T05:38:38.044Z,100702.38
2022-12-08T05:41:07.196Z,100702.81
2022-12-08T05:43:35.047Z,100694.91
2022-12-08T05:46:03.051Z,100691.81
2022-12-08T05:48:30.669Z,100682.44
2022-12-08T05:50:58.323Z,100687.28
2022-12-08T05:53:27.445Z,100685.34
2022-12-08T05:55:55.445Z,100662.56
2022-12-08T05:58:24.606Z,100684.13
2022-12-08T06:00:52.577Z,100682.63
2022-12-08T06:03:20.542Z,100685.63
2022-12-08T06:05:48.610Z,100691.31
2022-12-08T06:08:16.365Z,100692.66
2022-12-08T06:10:46.214Z,100693.25
2022-12-08T06:13:14.101Z,100694.06
2022-12-08T06:15:42.729Z,100679.19
2022-12-08T06:18:11.671Z,100688.00
2022-12-08T06:20:39.274Z,100694.94
2022-12-08T06:23:06.911Z,100698.44
2022-12-08T06:25:34.586Z,100702.38
2022-12-08T06:28:06.031Z,100691.63
2022-12-08T06:30:33.673Z,100691.75
2022-12-08T06:33:01.385Z,100687.97
2022-12-08T06:35:28.974Z,100686.78
2022-12-08T06:37:56.547Z,100686.34
2022-12-08T06:40:24.103Z,100687.34
2022-12-08T06:42:51.681Z,100683.44
2022-12-08T06:45:20.755Z,100690.06
2022-12-08T06:47:48.364Z,100682.19
2022-12-08T06:50:15.984Z,100673.78
2022-12-08T06:52:54.301Z,100682.50
2022-12-08T06:55:57.307Z,100677.88
2022-12-08T06:58:15.118Z,100686.09
2022-12-08T07:00:44.323Z,100684.19
2022-12-08T07:03:12.970Z,100688.75
2022-12-08T07:05:41.181Z,100691.91
2022-12-08T07:08:10.276Z,100690.50
2022-12-08T07:10:38.475Z,100681.31
2022-12-08T07:13:06.296Z,100684.88
2022-12-08T07:15:33.971Z,100686.75
2022-12-08T07:18:03.043Z,100691.13
2022-12-08T07:20:30.656Z,100690.88
2022-12-08T07:22:58.331Z,100694.41
2022-12-08T07:25:26.206Z,100657.31
2022-12-08T07:27:53.821Z,100700.81
2022-12-08T07:30:21.586Z,100700.69
2022-12-08T07:32:49.231Z,100699.56
2022-12-08T07:35:18.396Z,100699.63
2022-12-08T07:37:46.074Z,100702.94
2022-12-08T07:40:14.725Z,100703.91
2022-12-08T07:42:42.351Z,100704.34
2022-12-08T07:45:10.814Z,100698.81
2022-12-08T07:47:38.404Z,100699.22
2022-12-08T07:50:07.897Z,100693.78
2022-12-08T07:52:36.961Z,100704.69
2022-12-08T07:55:04.933Z,100698.84
2022-12-08T07:57:32.595Z,100706.34
2022-12-08T08:00:00.355Z,100699.34
2022-12-08T08:02:28.047Z,100702.59
2022-12-08T08:04:56.171Z,100706.53
2022-12-08T08:07:23.841Z,100711.41
2022-12-08T08:09:52.814Z,100709.28
2022-12-08T08:12:31.267Z,100699.69
2022-12-08T08:15:00.252Z,100706.97
2022-12-08T08:17:28.457Z,100707.06
2022-12-08T08:19:56.195Z,100701.34
2022-12-08T08:22:23.918Z,100703.13
2022-12-08T08:24:53.022Z,100696.53
2022-12-08T08:27:21.349Z,100695.94
2022-12-08T08:29:49.010Z,100700.53
2022-12-08T08:32:16.715Z,100698.53
2022-12-08T08:34:44.353Z,100690.34
2022-12-08T08:37:12.100Z,100706.94
2022-12-08T08:39:39.770Z,100705.72
2022-12-08T08:42:08.832Z,100701.78
2022-12-08T08:44:37.452Z,100705.81
2022-12-08T08:47:05.140Z,100699.38
2022-12-08T08:49:32.880Z,100698.78
2022-12-08T08:52:00.677Z,100706.97
2022-12-08T08:54:29.987Z,100703.69
2022-12-08T08:56:58.313Z,100703.13
2022-12-08T08:59:27.950Z,100703.91
2022-12-08T09:01:55.836Z,100711.03
2022-12-08T09:04:24.183Z,100715.50
2022-12-08T09:06:51.900Z,100717.94
2022-12-08T09:09:19.588Z,100721.06
2022-12-08T09:11:47.267Z,100719.13
2022-12-08T09:14:15.834Z,100723.47
2022-12-08T09:16:44.954Z,100721.84
2022-12-08T09:19:12.883Z,100717.03
2022-12-08T09:21:41.046Z,100712.13
2022-12-08T09:24:10.561Z,100673.78
2022-12-08T09:26:38.259Z,100705.81
2022-12-08T09:29:05.894Z,100708.81
2022-12-08T09:31:33.562Z,100714.03
2022-12-08T09:34:02.672Z,100708.34
2022-12-08T09:36:30.312Z,100709.94
2022-12-08T09:38:58.054Z,100697.38
2022-12-08T09:41:37.923Z,100713.59
2022-12-08T09:44:27.777Z,100715.50
2022-12-08T09:46:57.624Z,100722.81
2022-12-08T09:49:34.564Z,100726.09
2022-12-08T09:52:03.100Z,100725.59
2022-12-08T09:54:35.341Z,100733.69
2022-12-08T09:57:08.374Z,100728.84
2022-12-08T09:59:36.471Z,100731.66
2022-12-08T10:02:14.464Z,100729.34
2022-12-08T10:04:43.663Z,100727.97
2022-12-08T10:07:18.219Z,100718.34
2022-12-08T10:09:53.959Z,100717.13
2022-12-08T10:12:27.316Z,100711.66
2022-12-08T10:15:03.866Z,100710.75
2022-12-08T10:17:36.525Z,100706.66
2022-12-08T10:20:13.732Z,100710.00
2022-12-08T10:22:44.645Z,100711.06
2022-12-08T10:25:19.046Z,100714.47
2022-12-08T10:27:49.778Z,100699.94
2022-12-08T10:30:19.998Z,100701.78
2022-12-08T10:32:50.372Z,100703.53
2022-12-08T10:35:21.101Z,100705.06
2022-12-08T10:37:57.374Z,100708.97
2022-12-08T10:40:28.389Z,100699.63
2022-12-08T10:42:58.874Z,100679.66
2022-12-08T10:45:28.632Z,100681.03
2022-12-08T10:48:00.938Z,100691.84
2022-12-08T10:50:36.299Z,100691.88
2022-12-08T10:53:13.757Z,100682.97
2022-12-08T10:55:44.236Z,100683.22
2022-12-08T10:58:35.344Z,100643.09
2022-12-08T11:01:06.179Z,100666.13
2022-12-08T11:03:37.193Z,100667.50
2022-12-08T11:06:16.864Z,100659.16
2022-12-08T11:08:49.110Z,100638.44
2022-12-08T11:11:17.315Z,100643.19
2022-12-08T11:13:45.165Z,100652.72
2022-12-08T11:16:16.007Z,100647.84
2022-12-08T11:18:46.932Z,100644.06
2022-12-08T11:21:19.204Z,100634.53
2022-12-08T11:23:49.951Z,100624.50
2022-12-08T11:26:27.185Z,100626.00
2022-12-08T11:28:54.933Z,100631.03
2022-12-08T11:31:29.976Z,100627.25
2022-12-08T11:33:57.718Z,100624.09
2022-12-08T11:36:29.767Z,100622.91
2022-12-08T11:39:00.738Z,100621.56
2022-12-08T11:41:32.281Z,100620.47
2022-12-08T11:44:06.645Z,100621.69
2022-12-08T11:46:39.810Z,100622.25
2022-12-08T11:49:11.789Z,100619.66
2022-12-08T11:51:47.430Z,100628.34
2022-12-08T11:54:22.987Z,100618.56
2022-12-08T11:56:54.015Z,100613.13
2022-12-08T11:59:27.461Z,100619.66
2022-12-08T12:01:55.570Z,100622.13
2022-12-08T12:04:30.786Z,100615.72
2022-12-08T12:07:45.848Z,100604.19
2022-12-08T12:10:37.989Z,100607.97
2022-12-08T12:13:14.226Z,100603.63
2022-12-08T12:16:12.955Z,100605.28
2022-12-08T12:18:46.524Z,100594.41
2022-12-08T12:21:19.829Z,100591.81
2022-12-08T12:23:54.607Z,100595.22
2022-12-08T12:26:24.057Z,100595.75
2022-12-08T12:28:56.330Z,100590.72
2022-12-08T12:31:27.328Z,100588.03
2022-12-08T12:34:04.758Z,100586.00
2022-12-08T12:36:33.143Z,100585.47
2022-12-08T12:39:03.377Z,100586.66
2022-12-08T12:41:39.098Z,100571.19
2022-12-08T12:44:40.875Z,100584.09
2022-12-08T12:47:14.649Z,100581.94
2022-12-08T12:49:53.866Z,100574.31
2022-12-08T12:52:44.539Z,100578.13
2022-12-08T12:55:27.868Z,100575.44
2022-12-08T12:57:57.581Z,100548.69
2022-12-08T13:00:26.748Z,100579.47
2022-12-08T13:02:56.734Z,100580.31
2022-12-08T13:05:27.515Z,100572.97
2022-12-08T13:07:57.770Z,100573.94
2022-12-08T13:10:30.715Z,100570.56
2022-12-08T13:13:19.748Z,100570.28
2022-12-08T13:15:53.452Z,100575.28
2022-12-08T13:18:25.075Z,100577.59
2022-12-08T13:20:56.005Z,100572.16
2022-12-08T13:23:29.106Z,100568.91
2022-12-08T13:26:21.089Z,100577.31
2022-12-08T13:29:19.573Z,100570.69
2022-12-08T13:31:51.261Z,100565.50
2022-12-08T13:34:29.430Z,100571.06
2022-12-08T13:37:06.189Z,100561.72
2022-12-08T13:39:47.772Z,100569.56
2022-12-08T13:42:22.954Z,100568.56
2022-12-08T13:48:20.602Z,100571.47
2022-12-08T13:52:15.776Z,100574.72
2022-12-08T13:54:42.436Z,100569.69
2022-12-08T13:59:11.192Z,100566.47
2022-12-08T14:01:45.294Z,100558.03
2022-12-08T14:07:06.035Z,100561.97
2022-12-08T14:09:36.929Z,100567.41
2022-12-08T14:12:09.361Z,100559.13
2022-12-08T14:17:29.932Z,100561.56
2022-12-08T14:19:59.892Z,100564.97
2022-12-08T14:22:34.102Z,100561.44
2022-12-08T14:25:01.943Z,100570.25
2022-12-08T14:27:34.097Z,100575.56
2022-12-08T14:30:06.228Z,100568.78
2022-12-08T14:32:37.374Z,100569.47
2022-12-08T14:35:18.989Z,100561.03
2022-12-08T14:37:49.213Z,100569.72
2022-12-08T14:40:23.767Z,100561.84
2022-12-08T14:42:53.683Z,100555.63
2022-12-08T14:45:22.844Z,100571.34
2022-12-08T14:47:51.173Z,100570.41
2022-12-08T14:50:40.332Z,100568.63
2022-12-08T14:53:13.902Z,100568.22
2022-12-08T14:55:42.019Z,100561.03
2022-12-08T14:58:19.004Z,100566.75
2022-12-08T15:00:51.498Z,100568.66
2022-12-08T15:03:22.626Z,100574.19
2022-12-08T15:05:53.037Z,100555.72
2022-12-08T15:08:20.725Z,100562.13
2022-12-08T15:10:48.490Z,100569.31
2022-12-08T15:13:23.802Z,100565.91
2022-12-08T15:15:55.019Z,100563.47
2022-12-08T15:18:29.812Z,100572.28
2022-12-08T15:21:03.266Z,100568.59
2022-12-08T15:23:33.131Z,100571.06
2022-12-08T15:26:00.896Z,100575.41
2022-12-08T15:28:30.704Z,100568.88
2022-12-08T15:31:00.069Z,100566.72
2022-12-08T15:33:28.221Z,100569.28
2022-12-08T15:35:55.851Z,100572.56
2022-12-08T15:38:25.695Z,100581.09
2022-12-08T15:40:54.414Z,100575.53
2022-12-08T15:43:22.707Z,100569.72
2022-12-08T15:45:59.182Z,100571.09
2022-12-08T15:48:30.827Z,100569.47
2022-12-08T15:50:58.939Z,100562.78
2022-12-08T15:53:26.731Z,100569.06
2022-12-08T15:58:58.594Z,100565.91
2022-12-08T16:01:26.848Z,100560.63
2022-12-08T16:09:38.339Z,100563.19
2022-12-08T16:12:24.900Z,100560.31
2022-12-08T16:17:40.986Z,100561.31
2022-12-08T16:20:14.890Z,100561.19
2022-12-08T16:23:13.068Z,100566.72
2022-12-08T16:25:52.804Z,100555.59
2022-12-08T16:28:52.264Z,100555.81
2022-12-08T16:31:11.747Z,100546.59
2022-12-08T16:33:41.312Z,100547.66
2022-12-08T16:36:11.237Z,100543.47
2022-12-08T16:38:38.852Z,100551.06
2022-12-08T16:41:24.442Z,100549.81
2022-12-08T16:43:52.910Z,100545.91
2022-12-08T16:46:23.840Z,100547.94
2022-12-08T16:48:51.586Z,100548.75
2022-12-08T16:51:26.566Z,100551.50
2022-12-08T16:53:54.861Z,100551.88
2022-12-08T16:56:30.393Z,100554.81
2022-12-08T16:58:59.840Z,100549.50
2022-12-08T17:01:27.620Z,100548.81
2022-12-08T17:04:29.307Z,100544.06
2022-12-08T17:06:44.321Z,100557.72
2022-12-08T17:09:11.884Z,100552.69
2022-12-08T17:11:43.271Z,100541.72
2022-12-08T17:14:11.780Z,100534.66
2022-12-08T17:16:39.478Z,100552.84
2022-12-08T17:19:07.147Z,100539.88
2022-12-08T17:21:34.899Z,100543.53
2022-12-08T17:24:03.911Z,100541.59
2022-12-08T17:26:31.870Z,100550.69
2022-12-08T17:29:01.407Z,100541.66
2022-12-08T17:31:31.505Z,100547.56
2022-12-08T17:34:00.228Z,100544.06
2022-12-08T17:36:27.846Z,100552.47
2022-12-08T17:38:55.735Z,100543.53
2022-12-08T17:41:24.851Z,100548.69
2022-12-08T17:43:52.485Z,100543.72
2022-12-08T17:46:21.751Z,100536.38
2022-12-08T17:48:49.694Z,100543.47
2022-12-08T17:51:17.383Z,100536.19
2022-12-08T17:53:45.001Z,100543.56
2022-12-08T17:56:17.112Z,100540.28
2022-12-08T17:58:51.066Z,100535.16
2022-12-08T18:01:22.229Z,100542.03
2022-12-08T18:03:49.864Z,100548.09
2022-12-08T18:06:18.064Z,100545.78
2022-12-08T18:08:46.161Z,100526.50
2022-12-08T18:11:17.672Z,100542.31
2022-12-08T18:13:47.469Z,100541.75
2022-12-08T18:16:15.708Z,100540.00
2022-12-08T18:18:43.427Z,100542.44
2022-12-08T18:21:11.726Z,100538.75
2022-12-08T18:23:40.858Z,100542.22
2022-12-08T18:26:10.846Z,100545.97
2022-12-08T18:28:38.883Z,100547.84
2022-12-08T18:31:11.875Z,100542.44
2022-12-08T18:33:41.312Z,100547.63
2022-12-08T18:36:11.295Z,100551.59
2022-12-08T18:38:39.358Z,100543.31
2022-12-08T18:41:08.335Z,100546.66
2022-12-08T18:43:36.711Z,100548.22
2022-12-08T18:46:07.552Z,100551.31
2022-12-08T18:48:36.849Z,100562.91
2022-12-08T18:51:05.733Z,100561.56
2022-12-08T18:53:33.116Z,100551.03
2022-12-08T18:56:00.702Z,100557.78
2022-12-08T18:58:28.289Z,100550.34
2022-12-08T19:00:55.939Z,100559.38
2022-12-08T19:03:23.548Z,100565.28
2022-12-08T19:06:03.105Z,100555.09
2022-12-08T19:08:31.703Z,100560.72
2022-12-08T19:10:59.469Z,100557.81
2022-12-08T19:13:27.759Z,100554.38
2022-12-08T19:15:55.663Z,100553.34
2022-12-08T19:18:23.709Z,100561.31
2022-12-08T19:20:56.588Z,100566.03
2022-12-08T19:23:24.186Z,100570.19
2022-12-08T19:25:53.209Z,100571.31
2022-12-08T19:28:20.891Z,100570.00
2022-12-08T19:30:48.694Z,100563.34
2022-12-08T19:33:16.419Z,100569.22
2022-12-08T19:35:50.611Z,100570.16
2022-12-08T19:38:21.381Z,100569.00
2022-12-08T19:41:06.836Z,100577.66
2022-12-08T19:43:52.050Z,100580.25
2022-12-08T19:46:20.174Z,100571.34
2022-12-08T19:48:47.916Z,100574.28
2022-12-08T19:51:15.645Z,100573.41
2022-12-08T19:53:47.792Z,100578.97
2022-12-08T19:56:15.757Z,100576.19
2022-12-08T19:58:43.359Z,100578.66
2022-12-08T20:01:11.093Z,100568.16
2022-12-08T20:03:38.909Z,100531.19
2022-12-08T20:06:06.757Z,100571.94
2022-12-08T20:08:34.440Z,100574.41
2022-12-08T20:11:03.462Z,100580.03
2022-12-08T20:13:45.516Z,100583.81
2022-12-08T20:16:13.705Z,100562.69
2022-12-08T20:18:42.767Z,100581.59
2022-12-08T20:21:10.633Z,100581.13
2022-12-08T20:23:38.250Z,100583.69
2022-12-08T20:26:08.277Z,100587.34
2022-12-08T20:28:36.429Z,100596.34
2022-12-08T20:31:04.698Z,100596.16
2022-12-08T20:33:32.658Z,100590.88
2022-12-08T20:36:01.580Z,100595.44
2022-12-08T20:38:29.614Z,100599.25
2022-12-08T20:40:58.014Z,100605.09
2022-12-08T20:43:27.369Z,100596.16
2022-12-08T20:45:54.992Z,100608.84
2022-12-08T20:48:22.961Z,100597.91
2022-12-08T20:50:51.388Z,100618.97
2022-12-08T20:53:19.048Z,100604.84
2022-12-08T20:55:46.884Z,100602.47
2022-12-08T20:58:14.779Z,100599.88
2022-12-08T21:00:44.127Z,100605.72
2022-12-08T21:03:13.291Z,100603.38
2022-12-08T21:05:41.617Z,100612.09
2022-12-08T21:08:09.373Z,100616.06
2022-12-08T21:10:43.532Z,100623.03
2022-12-08T21:13:11.665Z,100610.78
2022-12-08T21:15:39.635Z,100617.56
2022-12-08T21:18:08.862Z,100618.31
2022-12-08T21:20:36.753Z,100621.88
2022-12-08T21:23:04.423Z,100624.34
2022-12-08T21:25:32.084Z,100621.66
2022-12-08T21:27:59.831Z,100609.84
2022-12-08T21:30:27.548Z,100619.28
2022-12-08T21:32:55.494Z,100616.06
2022-12-08T21:35:24.605Z,100614.81
2022-12-08T21:37:52.322Z,100613.63
2022-12-08T21:40:20.181Z,100618.91
2022-12-08T21:42:47.985Z,100632.97
2022-12-08T21:45:17.688Z,100625.97
2022-12-08T21:47:46.499Z,100628.13
2022-12-08T21:50:14.984Z,100619.28
2022-12-08T21:52:46.586Z,100625.19
2022-12-08T21:55:15.697Z,100623.28
2022-12-08T21:57:43.819Z,100629.88
2022-12-08T22:00:16.631Z,100627.31
2022-12-08T22:02:44.969Z,100631.00
2022-12-08T22:05:13.067Z,100631.28
2022-12-08T22:07:42.480Z,100602.81
2022-12-08T22:10:12.370Z,100635.53
2022-12-08T22:12:40.810Z,100636.84
2022-12-08T22:15:11.397Z,100631.28
2022-12-08T22:17:40.646Z,100637.41
2022-12-08T22:20:11.431Z,100639.06
2022-12-08T22:22:39.656Z,100641.38
2022-12-08T22:25:10.952Z,100651.41
2022-12-08T22:27:40.954Z,100639.56
2022-12-08T22:30:10.464Z,100636.06
2022-12-08T22:32:38.792Z,100644.31
2022-12-08T22:35:07.302Z,100607.34
2022-12-08T22:37:35.139Z,100637.03
2022-12-08T22:40:03.241Z,100631.66
2022-12-08T22:42:31.214Z,100631.25
2022-12-08T22:45:00.473Z,100635.56
2022-12-08T22:47:28.454Z,100632.84
2022-12-08T22:49:56.070Z,100635.56
2022-12-08T22:52:23.725Z,100631.00
2022-12-08T22:54:51.357Z,100630.38
2022-12-08T22:57:19.253Z,100622.47
2022-12-08T22:59:47.032Z,100623.16
2022-12-08T23:02:16.097Z,100630.38
2022-12-08T23:04:46.357Z,100631.19
2022-12-08T23:07:14.159Z,100615.88
2022-12-08T23:09:41.898Z,100613.66
2022-12-08T23:12:09.577Z,100615.44
2022-12-08T23:14:37.293Z,100619.38
2022-12-08T23:17:05.196Z,100612.41
2022-12-08T23:19:36.318Z,100615.81
2022-12-08T23:22:04.049Z,100605.78
2022-12-08T23:24:31.820Z,100596.78
2022-12-08T23:26:59.748Z,100604.41
2022-12-08T23:29:27.464Z,100603.91
2022-12-08T23:31:55.148Z,100610.13
2022-12-08T23:34:23.100Z,100604.97
2022-12-08T23:36:52.115Z,100604.50
2022-12-08T23:39:19.785Z,100610.34
2022-12-08T23:41:47.572Z,100607.34
2022-12-08T23:44:15.372Z,100597.16
2022-12-08T23:46:43.115Z,100610.03
2022-12-08T23:49:11.024Z,100615.47
2022-12-08T23:51:38.739Z,100611.03
2022-12-08T23:54:08.849Z,100597.25
2022-12-08T23:56:36.559Z,100614.94
2022-12-08T23:59:04.336Z,100573.66
